createdAt,value
2023-01-10T00:01:56.842Z,21.05
2023-01-10T00:04:27.007Z,18.77
2023-01-10T00:06:55.024Z,19.73
2023-01-10T00:09:23.081Z,18.65
2023-01-10T00:12:09.631Z,14.98
2023-01-10T00:14:37.518Z,18.25
2023-01-10T00:17:05.528Z,16.05
2023-01-10T00:19:34.115Z,16.65
2023-01-10T00:22:09.174Z,13.80
2023-01-10T00:24:37.491Z,14.70
2023-01-10T00:27:05.546Z,14.63
2023-01-10T00:29:35.420Z,12.30
2023-01-10T00:32:03.415Z,12.27
2023-01-10T00:34:33.051Z,12.23
2023-01-10T00:37:01.790Z,11.07
2023-01-10T00:39:30.022Z,12.77
2023-01-10T00:42:16.265Z,12.52
2023-01-10T00:44:46.907Z,15.75
2023-01-10T00:47:16.042Z,14.80
2023-01-10T00:49:44.471Z,9.27
2023-01-10T00:52:12.638Z,9.90
2023-01-10T00:54:40.552Z,10.82
2023-01-10T00:57:08.527Z,10.95
2023-01-10T00:59:37.128Z,10.30
2023-01-10T01:02:05.416Z,10.25
2023-01-10T01:04:34.623Z,9.35
2023-01-10T01:07:02.857Z,10.00
2023-01-10T01:09:31.475Z,10.10
2023-01-10T01:12:00.006Z,10.50
2023-01-10T01:14:28.434Z,12.27
2023-01-10T01:16:58.057Z,12.70
2023-01-10T01:19:26.148Z,10.35
2023-01-10T01:21:54.539Z,13.63
2023-01-10T01:24:24.503Z,13.93
2023-01-10T01:26:52.631Z,13.00
2023-01-10T01:29:20.702Z,13.95
2023-01-10T01:31:48.661Z,12.02
2023-01-10T01:34:16.720Z,11.07
2023-01-10T01:36:45.302Z,10.05
2023-01-10T01:39:13.635Z,10.45
2023-01-10T01:42:00.403Z,11.10
2023-01-10T01:44:34.249Z,10.40
2023-01-10T01:47:27.813Z,11.95
2023-01-10T01:49:56.680Z,11.13
2023-01-10T01:52:29.592Z,9.90
2023-01-10T01:54:59.843Z,10.18
2023-01-10T01:57:31.861Z,11.02
2023-01-10T02:00:02.359Z,11.30
2023-01-10T02:03:01.781Z,11.70
2023-01-10T02:05:33.469Z,8.32
2023-01-10T02:08:02.533Z,8.38
2023-01-10T02:10:39.056Z,9.07
2023-01-10T02:13:10.439Z,8.68
2023-01-10T02:15:38.312Z,8.05
2023-01-10T02:18:06.984Z,8.88
2023-01-10T02:21:04.943Z,10.07
2023-01-10T02:23:36.235Z,7.05
2023-01-10T02:26:15.835Z,10.35
2023-01-10T02:29:08.415Z,9.68
2023-01-10T02:32:43.971Z,9.73
2023-01-10T02:35:27.341Z,11.45
2023-01-10T02:37:58.345Z,10.48
2023-01-10T02:40:44.510Z,10.07
2023-01-10T02:43:18.627Z,9.45
2023-01-10T02:45:59.619Z,8.48
2023-01-10T02:48:27.613Z,10.70
2023-01-10T02:51:18.423Z,10.75
2023-01-10T02:54:12.894Z,11.27
2023-01-10T02:56:49.974Z,9.45
2023-01-10T02:59:49.428Z,11.20
2023-01-10T03:02:47.741Z,9.80
2023-01-10T03:05:26.054Z,6.35
2023-01-10T03:08:03.323Z,8.90
2023-01-10T03:11:03.521Z,7.22
2023-01-10T03:13:53.280Z,14.93
2023-01-10T03:16:26.805Z,7.82
2023-01-10T03:18:56.975Z,10.70
2023-01-10T03:21:26.499Z,7.05
2023-01-10T03:24:01.086Z,9.75
2023-01-10T03:26:47.559Z,9.15
2023-01-10T03:29:22.971Z,7.35
2023-01-10T03:32:00.923Z,8.48
2023-01-10T03:34:29.438Z,8.60
2023-01-10T03:37:12.898Z,7.03
2023-01-10T03:39:51.187Z,6.43
2023-01-10T03:42:50.222Z,7.82
2023-01-10T03:45:26.999Z,6.90
2023-01-10T03:47:58.305Z,8.73
2023-01-10T03:50:28.662Z,6.22
2023-01-10T03:52:57.973Z,5.93
2023-01-10T03:55:29.089Z,6.95
2023-01-10T03:57:57.721Z,7.22
2023-01-10T04:00:26.356Z,7.38
2023-01-10T04:02:54.597Z,7.15
2023-01-10T04:05:22.555Z,6.82
2023-01-10T04:07:50.671Z,8.48
2023-01-10T04:10:18.658Z,6.93
2023-01-10T04:12:46.716Z,8.60
2023-01-10T04:15:15.471Z,6.57
2023-01-10T04:17:44.301Z,7.72
2023-01-10T04:20:13.390Z,6.88
2023-01-10T04:22:41.862Z,7.00
2023-01-10T04:25:09.954Z,5.93
2023-01-10T04:27:38.136Z,6.32
2023-01-10T04:30:07.457Z,6.43
2023-01-10T04:32:35.875Z,6.22
2023-01-10T04:35:04.583Z,6.95
2023-01-10T04:37:32.629Z,5.57
2023-01-10T04:40:00.995Z,6.30
2023-01-10T04:42:29.121Z,6.18
2023-01-10T04:44:57.223Z,8.68
2023-01-10T04:47:25.731Z,8.95
2023-01-10T04:49:53.755Z,6.38
2023-01-10T04:52:23.084Z,6.85
2023-01-10T04:54:51.096Z,6.85
2023-01-10T04:57:19.683Z,6.82
2023-01-10T04:59:48.075Z,7.53
2023-01-10T05:02:17.027Z,6.88
2023-01-10T05:04:45.233Z,6.88
2023-01-10T05:07:13.807Z,6.25
2023-01-10T05:09:42.943Z,6.70
2023-01-10T05:12:11.009Z,6.88
2023-01-10T05:14:39.970Z,5.65
2023-01-10T05:17:08.476Z,6.70
2023-01-10T05:19:36.800Z,6.22
2023-01-10T05:22:04.797Z,7.32
2023-01-10T05:24:33.038Z,5.45
2023-01-10T05:27:01.018Z,6.40
2023-01-10T05:29:29.017Z,6.72
2023-01-10T05:31:57.956Z,7.78
2023-01-10T05:34:26.187Z,8.10
2023-01-10T05:36:54.665Z,8.93
2023-01-10T05:39:23.209Z,8.60
2023-01-10T05:41:51.741Z,7.57
2023-01-10T05:44:20.363Z,7.95
2023-01-10T05:46:48.293Z,7.57
2023-01-10T05:49:16.205Z,7.82
2023-01-10T05:51:44.473Z,8.32
2023-01-10T05:54:12.684Z,7.07
2023-01-10T05:56:40.697Z,8.77
2023-01-10T05:59:17.215Z,10.60
2023-01-10T06:01:55.643Z,8.57
2023-01-10T06:04:24.653Z,9.15
2023-01-10T06:06:52.961Z,9.65
2023-01-10T06:09:20.990Z,9.70
2023-01-10T06:11:48.918Z,9.73
2023-01-10T06:14:19.599Z,10.35
2023-01-10T06:16:48.722Z,9.15
2023-01-10T06:19:17.847Z,9.90
2023-01-10T06:21:46.241Z,10.57
2023-01-10T06:24:14.242Z,10.85
2023-01-10T06:26:42.393Z,11.07
2023-01-10T06:29:10.499Z,11.05
2023-01-10T06:31:38.634Z,11.82
2023-01-10T06:34:06.685Z,11.82
2023-01-10T06:36:35.193Z,6.70
2023-01-10T06:39:04.352Z,8.73
2023-01-10T06:41:32.764Z,11.00
2023-01-10T06:44:00.779Z,11.05
2023-01-10T06:46:28.744Z,10.98
2023-01-10T06:48:56.702Z,10.10
2023-01-10T06:51:25.257Z,10.52
2023-01-10T06:53:53.822Z,10.55
2023-01-10T06:56:21.894Z,9.45
2023-01-10T06:58:50.956Z,10.02
2023-01-10T07:01:21.985Z,12.40
2023-01-10T07:03:51.402Z,8.93
2023-01-10T07:06:19.452Z,10.18
2023-01-10T07:08:48.279Z,12.07
2023-01-10T07:11:17.835Z,9.98
2023-01-10T07:13:45.847Z,10.23
2023-01-10T07:16:16.840Z,10.10
2023-01-10T07:18:45.304Z,13.90
2023-01-10T07:21:14.011Z,11.77
2023-01-10T07:23:41.935Z,10.90
2023-01-10T07:26:11.817Z,9.55
2023-01-10T07:28:40.316Z,7.30
2023-01-10T07:31:08.774Z,8.35
2023-01-10T07:33:36.843Z,7.05
2023-01-10T07:36:05.428Z,4.78
2023-01-10T07:38:33.785Z,9.02
2023-01-10T07:41:04.037Z,7.18
2023-01-10T07:43:32.860Z,7.00
2023-01-10T07:46:03.147Z,6.97
2023-01-10T07:48:31.763Z,6.40
2023-01-10T07:51:01.662Z,10.70
2023-01-10T07:53:30.251Z,9.25
2023-01-10T07:56:03.497Z,6.97
2023-01-10T08:01:26.188Z,7.45
2023-01-10T08:03:54.506Z,5.40
2023-01-10T08:06:22.562Z,4.55
2023-01-10T08:08:50.989Z,6.22
2023-01-10T08:11:19.575Z,5.75
2023-01-10T08:13:47.687Z,5.38
2023-01-10T08:16:15.920Z,8.05
2023-01-10T08:18:43.911Z,8.02
2023-01-10T08:21:11.896Z,7.45
2023-01-10T08:23:40.940Z,9.98
2023-01-10T08:26:08.990Z,9.95
2023-01-10T08:28:37.188Z,11.07
2023-01-10T08:31:09.685Z,11.02
2023-01-10T08:33:39.769Z,10.88
2023-01-10T08:36:16.031Z,12.10
2023-01-10T08:38:44.735Z,9.75
2023-01-10T08:41:13.769Z,8.27
2023-01-10T08:43:41.761Z,9.45
2023-01-10T08:46:09.785Z,8.90
2023-01-10T08:48:38.079Z,8.55
2023-01-10T08:51:10.683Z,4.68
2023-01-10T08:53:40.940Z,5.77
2023-01-10T08:56:36.753Z,4.13
2023-01-10T08:59:05.444Z,4.43
2023-01-10T09:01:34.055Z,5.32
2023-01-10T09:04:03.243Z,5.78
2023-01-10T09:06:31.480Z,5.00
2023-01-10T09:08:59.456Z,1.30
2023-01-10T09:11:27.730Z,1.30
2023-01-10T09:13:55.857Z,0.93
2023-01-10T09:16:24.198Z,1.00
2023-01-10T09:18:52.843Z,1.00
2023-01-10T09:21:20.817Z,1.17
2023-01-10T09:23:48.860Z,1.23
2023-01-10T09:26:17.594Z,1.83
2023-01-10T09:28:48.053Z,1.00
2023-01-10T09:31:17.439Z,1.08
2023-01-10T09:33:47.726Z,1.67
2023-01-10T09:36:16.358Z,0.77
2023-01-10T09:38:44.915Z,1.20
2023-01-10T09:41:46.460Z,1.90
2023-01-10T09:44:29.739Z,1.20
2023-01-10T09:47:21.234Z,0.60
2023-01-10T09:50:29.607Z,1.00
2023-01-10T09:53:05.422Z,0.95
2023-01-10T09:55:38.183Z,0.70
2023-01-10T09:58:56.996Z,1.20
2023-01-10T10:01:36.677Z,1.33
2023-01-10T10:04:27.569Z,1.80
2023-01-10T10:06:57.080Z,1.55
2023-01-10T10:09:31.928Z,1.65
2023-01-10T10:12:37.043Z,1.05
2023-01-10T10:15:35.492Z,0.85
2023-01-10T10:18:17.434Z,1.30
2023-01-10T10:21:01.909Z,1.30
2023-01-10T10:23:41.953Z,1.80
2023-01-10T10:26:17.623Z,1.13
2023-01-10T10:28:53.921Z,0.80
2023-01-10T10:31:41.678Z,1.02
2023-01-10T10:34:25.050Z,1.25
2023-01-10T10:36:57.651Z,0.93
2023-01-10T10:39:51.408Z,1.10
2023-01-10T10:42:20.793Z,0.80
2023-01-10T10:44:56.485Z,0.90
2023-01-10T10:47:27.646Z,0.80
2023-01-10T10:50:17.250Z,1.30
2023-01-10T10:52:46.832Z,0.90
2023-01-10T10:55:17.959Z,0.63
2023-01-10T10:57:59.469Z,1.30
2023-01-10T11:00:30.179Z,0.73
2023-01-10T11:03:13.737Z,0.90
2023-01-10T11:05:45.923Z,0.47
2023-01-10T11:08:17.415Z,0.60
2023-01-10T11:10:54.133Z,0.65
2023-01-10T11:13:34.231Z,0.88
2023-01-10T11:16:05.216Z,0.90
2023-01-10T11:18:34.066Z,0.90
2023-01-10T11:21:19.645Z,1.40
2023-01-10T11:23:56.900Z,1.08
2023-01-10T11:26:39.411Z,1.20
2023-01-10T11:29:17.180Z,1.00
2023-01-10T11:31:46.863Z,1.00
2023-01-10T11:34:27.260Z,1.15
2023-01-10T11:36:57.118Z,1.20
2023-01-10T11:39:26.438Z,0.85
2023-01-10T11:41:58.330Z,0.70
2023-01-10T11:44:30.028Z,1.08
2023-01-10T11:47:03.937Z,1.25
2023-01-10T11:49:40.237Z,1.00
2023-01-10T11:52:30.214Z,1.05
2023-01-10T11:55:00.698Z,0.80
2023-01-10T11:57:31.924Z,1.40
2023-01-10T12:00:04.285Z,1.40
2023-01-10T12:02:43.827Z,1.10
2023-01-10T12:05:20.553Z,0.90
2023-01-10T12:08:25.943Z,1.20
2023-01-10T12:11:17.160Z,1.17
2023-01-10T12:13:51.377Z,1.13
2023-01-10T12:16:30.044Z,0.73
2023-01-10T12:19:04.720Z,1.67
2023-01-10T12:21:51.917Z,0.80
2023-01-10T12:24:28.378Z,1.17
2023-01-10T12:26:57.819Z,1.42
2023-01-10T12:29:35.073Z,0.90
2023-01-10T12:32:07.219Z,1.10
2023-01-10T12:34:47.314Z,1.30
2023-01-10T12:37:32.570Z,4.30
2023-01-10T12:40:25.120Z,2.38
2023-01-10T12:43:16.674Z,1.67
2023-01-10T12:45:53.662Z,1.38
2023-01-10T12:48:44.995Z,1.00
2023-01-10T12:51:19.129Z,0.90
2023-01-10T12:54:02.145Z,1.80
2023-01-10T12:56:31.633Z,1.08
2023-01-10T12:59:36.034Z,1.45
2023-01-10T13:02:11.113Z,1.20
2023-01-10T13:04:41.655Z,1.20
2023-01-10T13:07:15.962Z,1.20
2023-01-10T13:09:45.921Z,0.70
2023-01-10T13:12:20.591Z,1.10
2023-01-10T13:15:03.729Z,0.60
2023-01-10T13:17:40.437Z,0.93
2023-01-10T13:20:23.715Z,0.90
2023-01-10T13:22:55.891Z,1.13
2023-01-10T13:25:23.863Z,1.13
2023-01-10T13:28:21.463Z,5.93
2023-01-10T13:31:01.642Z,0.90
2023-01-10T13:33:31.317Z,1.73
2023-01-10T13:36:17.683Z,0.98
2023-01-10T13:38:50.089Z,1.25
2023-01-10T13:41:37.477Z,0.80
2023-01-10T13:44:13.357Z,0.85
2023-01-10T13:46:53.060Z,0.73
2023-01-10T13:49:37.997Z,1.92
2023-01-10T13:52:34.462Z,0.98
2023-01-10T13:55:22.852Z,1.30
2023-01-10T13:57:57.725Z,0.90
2023-01-10T14:01:09.392Z,1.00
2023-01-10T14:03:41.943Z,1.33
2023-01-10T14:06:27.707Z,1.50
2023-01-10T14:09:02.236Z,1.60
2023-01-10T14:11:48.939Z,1.30
2023-01-10T14:14:33.830Z,1.88
2023-01-10T14:17:21.128Z,1.23
2023-01-10T14:20:02.759Z,1.10
2023-01-10T14:22:37.292Z,1.50
2023-01-10T14:25:16.206Z,2.10
2023-01-10T14:27:47.197Z,1.70
2023-01-10T14:30:37.511Z,1.05
2023-01-10T14:33:22.716Z,2.63
2023-01-10T14:35:56.617Z,1.50
2023-01-10T14:38:33.997Z,0.70
2023-01-10T14:41:16.819Z,1.00
2023-01-10T14:44:14.049Z,0.93
2023-01-10T14:46:50.920Z,2.33
2023-01-10T14:49:36.593Z,1.33
2023-01-10T14:52:35.081Z,1.00
2023-01-10T14:55:13.434Z,1.50
2023-01-10T14:57:41.454Z,2.00
2023-01-10T15:00:15.083Z,2.95
2023-01-10T15:02:49.227Z,3.63
2023-01-10T15:05:28.417Z,2.53
2023-01-10T15:08:17.220Z,2.05
2023-01-10T15:10:48.300Z,3.83
2023-01-10T15:13:19.088Z,3.00
2023-01-10T15:15:50.270Z,3.30
2023-01-10T15:18:39.177Z,3.60
2023-01-10T15:21:07.790Z,2.58
2023-01-10T15:23:38.253Z,1.45
2023-01-10T15:26:15.089Z,2.63
2023-01-10T15:28:49.318Z,3.40
2023-01-10T15:31:17.680Z,2.20
2023-01-10T15:33:56.475Z,4.13
2023-01-10T15:36:28.272Z,4.10
2023-01-10T15:38:57.061Z,30.15
2023-01-10T15:41:25.190Z,3.90
2023-01-10T15:43:55.693Z,1.25
2023-01-10T15:46:26.937Z,1.40
2023-01-10T15:49:03.119Z,4.72
2023-01-10T15:51:35.543Z,7.22
2023-01-10T15:54:07.374Z,9.95
2023-01-10T15:56:42.030Z,10.20
2023-01-10T15:59:30.374Z,9.70
2023-01-10T16:02:17.903Z,15.38
2023-01-10T16:04:47.362Z,11.82
2023-01-10T16:07:42.564Z,14.52
2023-01-10T16:10:23.352Z,5.50
2023-01-10T16:13:10.775Z,10.65
2023-01-10T16:15:44.818Z,11.88
2023-01-10T16:18:13.096Z,8.27
2023-01-10T16:20:47.477Z,10.52
2023-01-10T16:23:22.137Z,21.55
2023-01-10T16:25:55.556Z,31.00
2023-01-10T16:28:48.947Z,27.15
2023-01-10T16:31:17.950Z,21.77
2023-01-10T16:33:46.253Z,37.33
2023-01-10T16:36:21.117Z,26.45
2023-01-10T16:38:50.126Z,19.83
2023-01-10T16:41:37.030Z,27.13
2023-01-10T16:44:05.222Z,12.77
2023-01-10T16:46:33.168Z,8.20
2023-01-10T16:49:02.823Z,7.72
2023-01-10T16:51:32.863Z,7.90
2023-01-10T16:54:01.536Z,10.20
2023-01-10T16:56:31.076Z,11.10
2023-01-10T16:58:59.267Z,12.70
2023-01-10T17:01:31.654Z,17.65
2023-01-10T17:04:00.504Z,15.27
2023-01-10T17:06:28.937Z,14.70
2023-01-10T17:08:57.365Z,13.55
2023-01-10T17:11:35.998Z,13.65
2023-01-10T17:14:05.502Z,14.32
2023-01-10T17:16:35.256Z,14.98
2023-01-10T17:19:04.314Z,12.93
2023-01-10T17:21:32.826Z,21.70
2023-01-10T17:24:00.863Z,24.52
2023-01-10T17:26:29.734Z,15.63
2023-01-10T17:28:58.957Z,8.45
2023-01-10T17:31:27.414Z,11.25
2023-01-10T17:33:55.408Z,13.75
2023-01-10T17:36:28.908Z,10.73
2023-01-10T17:38:57.186Z,8.25
2023-01-10T17:41:25.832Z,12.02
2023-01-10T17:43:55.451Z,12.27
2023-01-10T17:46:24.002Z,13.23
2023-01-10T17:48:52.400Z,14.27
2023-01-10T17:51:46.126Z,30.15
2023-01-10T17:54:15.291Z,22.25
2023-01-10T17:56:43.195Z,20.50
2023-01-10T17:59:11.118Z,36.22
2023-01-10T18:01:39.090Z,29.05
2023-01-10T18:04:08.405Z,36.90
2023-01-10T18:06:36.540Z,30.00
2023-01-10T18:09:04.843Z,27.48
2023-01-10T18:11:34.051Z,25.63
2023-01-10T18:14:21.968Z,23.60
2023-01-10T18:16:50.064Z,17.38
2023-01-10T18:19:18.140Z,28.38
2023-01-10T18:21:47.467Z,25.88
2023-01-10T18:24:15.755Z,20.38
2023-01-10T18:26:43.762Z,25.33
2023-01-10T18:29:11.772Z,29.45
2023-01-10T18:31:41.527Z,24.83
2023-01-10T18:34:09.755Z,22.95
2023-01-10T18:36:40.153Z,17.45
2023-01-10T18:39:08.577Z,31.92
2023-01-10T18:41:36.508Z,44.45
2023-01-10T18:44:04.643Z,35.83
2023-01-10T18:46:32.745Z,30.17
2023-01-10T18:49:00.812Z,24.40
2023-01-10T18:51:28.817Z,23.20
2023-01-10T18:53:57.384Z,52.25
2023-01-10T18:56:25.292Z,28.98
2023-01-10T18:58:53.276Z,25.10
2023-01-10T19:01:22.450Z,26.70
2023-01-10T19:03:51.013Z,25.15
2023-01-10T19:06:44.432Z,26.42
2023-01-10T19:09:14.589Z,29.88
2023-01-10T19:11:42.520Z,31.17
2023-01-10T19:14:10.970Z,29.95
2023-01-10T19:16:38.911Z,27.83
2023-01-10T19:19:11.238Z,20.98
2023-01-10T19:21:40.209Z,47.72
2023-01-10T19:24:27.601Z,25.33
2023-01-10T19:26:56.622Z,32.30
2023-01-10T19:29:25.612Z,32.47
2023-01-10T19:31:53.853Z,17.90
2023-01-10T19:34:47.211Z,21.05
2023-01-10T19:37:15.622Z,21.27
2023-01-10T19:39:44.178Z,21.52
2023-01-10T19:42:12.267Z,24.33
2023-01-10T19:44:40.306Z,23.05
2023-01-10T19:47:08.459Z,28.42
2023-01-10T19:49:39.158Z,33.33
2023-01-10T19:52:07.561Z,21.98
2023-01-10T19:54:37.210Z,20.73
2023-01-10T19:57:07.700Z,19.58
2023-01-10T19:59:36.702Z,28.13
2023-01-10T20:02:05.730Z,27.05
2023-01-10T20:04:58.423Z,22.35
2023-01-10T20:07:27.207Z,25.00
2023-01-10T20:09:58.747Z,25.08
2023-01-10T20:12:27.029Z,22.73
2023-01-10T20:14:54.987Z,26.27
2023-01-10T20:17:23.455Z,24.17
2023-01-10T20:19:52.138Z,28.52
2023-01-10T20:22:20.094Z,26.25
2023-01-10T20:24:48.436Z,22.45
2023-01-10T20:27:19.542Z,27.05
2023-01-10T20:29:47.564Z,26.83
2023-01-10T20:32:16.007Z,30.50
2023-01-10T20:34:44.843Z,26.50
2023-01-10T20:37:14.335Z,25.00
2023-01-10T20:39:42.751Z,24.90
2023-01-10T20:42:10.705Z,27.90
2023-01-10T20:44:39.375Z,22.27
2023-01-10T20:47:07.441Z,23.33
2023-01-10T20:49:35.827Z,21.58
2023-01-10T20:52:03.970Z,18.38
2023-01-10T20:54:32.197Z,23.65
2023-01-10T20:57:00.454Z,24.95
2023-01-10T20:59:29.526Z,17.33
2023-01-10T21:01:57.946Z,13.52
2023-01-10T21:04:25.928Z,18.73
2023-01-10T21:06:54.262Z,14.55
2023-01-10T21:09:22.853Z,16.63
2023-01-10T21:12:04.152Z,18.23
2023-01-10T21:14:35.661Z,19.27
2023-01-10T21:17:03.670Z,13.75
2023-01-10T21:19:32.228Z,18.35
2023-01-10T21:22:00.386Z,18.23
2023-01-10T21:24:28.391Z,17.38
2023-01-10T21:26:56.408Z,22.88
2023-01-10T21:29:24.382Z,24.75
2023-01-10T21:31:53.533Z,23.25
2023-01-10T21:34:22.123Z,22.98
2023-01-10T21:36:50.199Z,18.15
2023-01-10T21:39:18.521Z,20.35
2023-01-10T21:42:05.063Z,18.30
2023-01-10T21:44:33.418Z,19.65
2023-01-10T21:47:01.922Z,33.15
2023-01-10T21:49:29.990Z,25.85
2023-01-10T21:51:58.139Z,20.02
2023-01-10T21:54:26.480Z,20.02
2023-01-10T21:56:54.840Z,17.90
2023-01-10T21:59:22.782Z,18.02
2023-01-10T22:01:51.603Z,14.82
2023-01-10T22:04:19.812Z,12.07
2023-01-10T22:06:48.022Z,16.02
2023-01-10T22:09:16.075Z,13.73
2023-01-10T22:11:43.991Z,20.02
2023-01-10T22:14:13.263Z,14.27
2023-01-10T22:16:41.250Z,11.80
2023-01-10T22:19:09.272Z,16.80
2023-01-10T22:21:37.255Z,17.60
2023-01-10T22:24:06.396Z,16.80
2023-01-10T22:26:34.872Z,13.80
2023-01-10T22:29:02.905Z,24.10
2023-01-10T22:31:30.934Z,21.13
2023-01-10T22:33:59.184Z,19.48
2023-01-10T22:36:27.610Z,16.48
2023-01-10T22:38:55.578Z,22.77
2023-01-10T22:41:28.894Z,17.63
2023-01-10T22:46:25.509Z,18.17
2023-01-10T22:48:54.070Z,18.55
2023-01-10T22:51:23.574Z,60.88
2023-01-10T22:53:54.570Z,22.48
2023-01-10T22:56:24.626Z,19.90
2023-01-10T22:58:53.207Z,18.45
2023-01-10T23:01:23.058Z,17.98
2023-01-10T23:03:52.089Z,16.08
2023-01-10T23:06:20.403Z,16.13
2023-01-10T23:08:48.708Z,14.50
2023-01-10T23:11:19.177Z,13.57
2023-01-10T23:13:48.183Z,14.43
2023-01-10T23:16:22.528Z,10.50
2023-01-10T23:18:51.062Z,16.05
2023-01-10T23:21:19.126Z,14.82
2023-01-10T23:23:47.072Z,15.82
2023-01-10T23:26:14.965Z,9.15
2023-01-10T23:28:52.514Z,15.85
2023-01-10T23:31:23.071Z,16.20
2023-01-10T23:33:51.941Z,18.05
2023-01-10T23:36:22.617Z,14.80
2023-01-10T23:38:50.964Z,15.48
2023-01-10T23:41:21.286Z,28.27
2023-01-10T23:43:50.605Z,19.02
2023-01-10T23:46:19.197Z,16.75
2023-01-10T23:48:48.552Z,16.73
2023-01-10T23:51:19.232Z,32.63
2023-01-10T23:53:47.595Z,14.55
2023-01-10T23:56:15.507Z,18.25
2023-01-10T23:58:43.933Z,16.60
